createdAt,value
2018-10-02T00:00:36.892Z,62.40
2018-10-02T00:03:04.669Z,62.40
2018-10-02T00:05:32.345Z,62.20
2018-10-02T00:08:00.096Z,61.80
2018-10-02T00:10:27.989Z,61.30
2018-10-02T00:13:01.522Z,61.50
2018-10-02T00:15:29.433Z,61.30
2018-10-02T00:17:57.211Z,62.00
2018-10-02T00:20:24.999Z,61.30
2018-10-02T00:22:52.764Z,61.30
2018-10-02T00:25:20.627Z,61.10
2018-10-02T00:27:48.638Z,60.80
2018-10-02T00:30:23.236Z,60.60
2018-10-02T00:32:51.121Z,59.90
2018-10-02T00:35:19.171Z,59.70
2018-10-02T00:37:47.139Z,59.90
2018-10-02T00:40:15.026Z,59.90
2018-10-02T00:42:42.938Z,60.00
2018-10-02T00:45:10.791Z,59.80
2018-10-02T00:47:38.870Z,60.00
2018-10-02T00:50:06.858Z,60.00
2018-10-02T00:52:34.764Z,60.10
2018-10-02T00:55:02.711Z,59.80
2018-10-02T00:57:30.423Z,59.70
2018-10-02T00:59:58.210Z,59.50
2018-10-02T01:02:25.865Z,59.20
2018-10-02T01:04:53.565Z,59.20
2018-10-02T01:07:21.329Z,58.90
2018-10-02T01:09:48.993Z,58.80
2018-10-02T01:12:16.677Z,59.10
2018-10-02T01:14:44.452Z,59.30
2018-10-02T01:17:12.159Z,59.30
2018-10-02T01:19:39.901Z,59.30
2018-10-02T01:22:07.647Z,59.70
2018-10-02T01:24:35.393Z,59.70
2018-10-02T01:27:03.100Z,59.80
2018-10-02T01:29:30.885Z,60.40
2018-10-02T01:31:58.574Z,61.20
2018-10-02T01:34:26.361Z,62.00
2018-10-02T01:36:54.140Z,62.10
2018-10-02T01:39:21.853Z,61.60
2018-10-02T01:41:49.515Z,61.90
2018-10-02T01:44:17.229Z,61.60
2018-10-02T01:46:44.916Z,60.50
2018-10-02T01:49:12.588Z,59.90
2018-10-02T01:51:40.297Z,60.30
2018-10-02T01:54:07.991Z,60.40
2018-10-02T01:56:35.806Z,60.50
2018-10-02T01:59:03.521Z,60.50
2018-10-02T02:01:31.254Z,60.60
2018-10-02T02:03:59.140Z,60.40
2018-10-02T02:06:26.886Z,59.80
2018-10-02T02:08:54.897Z,59.90
2018-10-02T02:11:22.590Z,60.00
2018-10-02T02:13:50.298Z,60.10
2018-10-02T02:16:17.969Z,59.90
2018-10-02T02:18:45.567Z,60.10
2018-10-02T02:21:13.241Z,60.30
2018-10-02T02:23:40.895Z,61.60
2018-10-02T02:26:08.565Z,61.10
2018-10-02T02:28:36.332Z,62.20
2018-10-02T02:31:04.069Z,63.30
2018-10-02T02:33:31.732Z,63.50
2018-10-02T02:35:59.989Z,62.70
2018-10-02T02:38:27.733Z,61.70
2018-10-02T02:40:55.416Z,61.90
2018-10-02T02:43:23.077Z,62.70
2018-10-02T02:45:50.780Z,62.90
2018-10-02T02:48:24.152Z,61.60
2018-10-02T02:50:56.364Z,61.00
2018-10-02T02:53:24.146Z,60.90
2018-10-02T02:55:52.080Z,62.30
2018-10-02T02:58:19.766Z,61.80
2018-10-02T03:00:47.485Z,60.60
2018-10-02T03:03:15.226Z,60.20
2018-10-02T03:05:43.038Z,60.00
2018-10-02T03:08:10.728Z,59.40
2018-10-02T03:10:38.397Z,60.00
2018-10-02T03:13:06.040Z,59.90
2018-10-02T03:15:33.800Z,58.90
2018-10-02T03:18:01.633Z,59.50
2018-10-02T03:20:29.431Z,59.70
2018-10-02T03:22:57.152Z,59.50
2018-10-02T03:25:24.796Z,59.60
2018-10-02T03:27:52.541Z,59.40
2018-10-02T03:30:20.473Z,59.20
2018-10-02T03:32:48.118Z,58.90
2018-10-02T03:35:16.048Z,59.00
2018-10-02T03:37:43.752Z,59.20
2018-10-02T03:40:11.464Z,58.60
2018-10-02T03:42:39.261Z,58.80
2018-10-02T03:45:06.978Z,59.00
2018-10-02T03:47:34.892Z,58.70
2018-10-02T03:50:03.028Z,59.20
2018-10-02T03:52:30.686Z,59.60
2018-10-02T03:54:58.515Z,59.90
2018-10-02T03:57:26.145Z,60.30
2018-10-02T03:59:53.760Z,59.50
2018-10-02T04:02:21.591Z,58.60
2018-10-02T04:04:49.227Z,59.30
2018-10-02T04:07:16.913Z,58.80
2018-10-02T04:09:44.633Z,58.50
2018-10-02T04:12:12.300Z,58.50
2018-10-02T04:14:40.045Z,58.60
2018-10-02T04:17:07.694Z,59.00
2018-10-02T04:19:35.423Z,58.90
2018-10-02T04:22:03.350Z,58.90
2018-10-02T04:24:31.044Z,58.80
2018-10-02T04:26:58.875Z,58.40
2018-10-02T04:29:26.500Z,58.10
2018-10-02T04:31:54.229Z,58.40
2018-10-02T04:34:21.897Z,58.70
2018-10-02T04:36:49.549Z,58.70
2018-10-02T04:39:17.416Z,58.90
2018-10-02T04:41:45.100Z,58.90
2018-10-02T04:44:12.796Z,59.00
2018-10-02T04:46:40.509Z,59.50
2018-10-02T04:49:08.185Z,60.40
2018-10-02T04:51:36.349Z,59.50
2018-10-02T04:54:04.004Z,59.60
2018-10-02T04:56:31.666Z,59.60
2018-10-02T04:58:59.359Z,60.10
2018-10-02T05:01:27.292Z,60.40
2018-10-02T05:03:54.942Z,60.10
2018-10-02T05:06:22.557Z,59.60
2018-10-02T05:08:50.361Z,61.80
2018-10-02T05:11:18.512Z,60.40
2018-10-02T05:13:46.180Z,59.10
2018-10-02T05:16:13.851Z,58.90
2018-10-02T05:18:41.486Z,59.00
2018-10-02T05:21:09.181Z,58.70
2018-10-02T05:23:36.987Z,59.10
2018-10-02T05:26:04.610Z,59.80
2018-10-02T05:28:32.277Z,60.30
2018-10-02T05:31:00.105Z,60.20
2018-10-02T05:33:27.960Z,60.30
2018-10-02T05:35:55.611Z,60.50
2018-10-02T05:38:23.659Z,61.80
2018-10-02T05:40:52.052Z,61.90
2018-10-02T05:43:19.746Z,61.80
2018-10-02T05:45:47.469Z,61.20
2018-10-02T05:48:15.956Z,62.00
2018-10-02T05:50:43.620Z,62.30
2018-10-02T05:53:11.316Z,61.90
2018-10-02T05:55:39.127Z,62.20
2018-10-02T05:58:06.983Z,62.50
2018-10-02T06:00:34.617Z,61.70
2018-10-02T06:03:02.455Z,61.60
2018-10-02T06:05:30.072Z,61.80
2018-10-02T06:07:58.000Z,62.10
2018-10-02T06:10:25.672Z,62.40
2018-10-02T06:12:53.321Z,62.50
2018-10-02T06:15:20.974Z,63.40
2018-10-02T06:17:48.772Z,64.40
2018-10-02T06:20:16.464Z,64.40
2018-10-02T06:22:44.161Z,64.00
2018-10-02T06:25:11.865Z,63.90
2018-10-02T06:27:39.469Z,64.10
2018-10-02T06:30:07.204Z,63.90
2018-10-02T06:32:35.381Z,63.80
2018-10-02T06:35:03.081Z,64.30
2018-10-02T06:37:30.893Z,65.10
2018-10-02T06:39:58.621Z,65.90
2018-10-02T06:42:26.256Z,66.30
2018-10-02T06:44:54.120Z,67.10
2018-10-02T06:47:22.015Z,66.80
2018-10-02T06:49:49.631Z,67.00
2018-10-02T06:52:17.589Z,66.70
2018-10-02T06:54:45.026Z,66.70
2018-10-02T06:57:13.158Z,67.40
2018-10-02T06:59:40.837Z,66.80
2018-10-02T07:02:08.468Z,67.50
2018-10-02T07:04:36.393Z,67.70
2018-10-02T07:07:04.086Z,68.20
2018-10-02T07:09:31.689Z,68.30
2018-10-02T07:11:59.375Z,68.20
2018-10-02T07:14:27.102Z,68.30
2018-10-02T07:16:55.104Z,68.30
2018-10-02T07:19:22.761Z,68.90
2018-10-02T07:21:50.668Z,68.90
2018-10-02T07:24:18.331Z,69.40
2018-10-02T07:26:46.161Z,69.70
2018-10-02T07:29:13.981Z,70.60
2018-10-02T07:31:41.653Z,69.60
2018-10-02T07:34:09.333Z,69.70
2018-10-02T07:36:37.328Z,69.00
2018-10-02T07:39:06.857Z,68.80
2018-10-02T07:41:34.643Z,68.40
2018-10-02T07:44:02.297Z,68.50
2018-10-02T07:46:30.097Z,68.90
2018-10-02T07:48:57.781Z,68.40
2018-10-02T07:51:25.453Z,68.00
2018-10-02T07:53:59.662Z,67.10
2018-10-02T07:56:27.336Z,67.60
2018-10-02T07:58:55.073Z,66.40
2018-10-02T08:01:22.916Z,66.30
2018-10-02T08:03:50.755Z,66.80
2018-10-02T08:06:18.360Z,67.30
2018-10-02T08:08:46.019Z,67.80
2018-10-02T08:11:13.670Z,67.20
2018-10-02T08:13:41.422Z,66.20
2018-10-02T08:16:09.109Z,66.00
2018-10-02T08:18:36.791Z,65.60
2018-10-02T08:21:04.657Z,66.50
2018-10-02T08:23:33.191Z,66.10
2018-10-02T08:26:00.951Z,65.80
2018-10-02T08:28:28.677Z,65.30
2018-10-02T08:30:56.320Z,66.80
2018-10-02T08:33:23.976Z,66.20
2018-10-02T08:35:51.912Z,66.50
2018-10-02T08:38:19.423Z,66.00
2018-10-02T08:40:47.208Z,65.70
2018-10-02T08:43:14.928Z,64.30
2018-10-02T08:45:42.590Z,63.20
2018-10-02T08:48:10.467Z,62.80
2018-10-02T08:50:38.179Z,63.20
2018-10-02T08:53:05.874Z,61.70
2018-10-02T08:55:33.558Z,60.40
2018-10-02T08:58:01.293Z,60.70
2018-10-02T09:00:29.026Z,61.30
2018-10-02T09:02:56.745Z,61.50
2018-10-02T09:05:24.378Z,61.00
2018-10-02T09:07:52.065Z,60.60
2018-10-02T09:10:19.927Z,59.40
2018-10-02T09:12:48.035Z,60.50
2018-10-02T09:15:15.769Z,60.40
2018-10-02T09:17:43.432Z,59.80
2018-10-02T09:20:11.417Z,58.30
2018-10-02T09:22:39.136Z,57.90
2018-10-02T09:25:06.929Z,57.90
2018-10-02T09:27:34.545Z,56.50
2018-10-02T09:30:08.040Z,56.60
2018-10-02T09:32:41.309Z,58.10
2018-10-02T09:35:14.578Z,55.30
2018-10-02T09:37:47.801Z,54.50
2018-10-02T09:40:21.224Z,53.80
2018-10-02T09:42:54.467Z,53.80
2018-10-02T09:45:22.282Z,54.20
2018-10-02T09:47:50.169Z,52.90
2018-10-02T09:50:17.852Z,53.30
2018-10-02T09:52:45.516Z,54.20
2018-10-02T09:55:13.144Z,53.80
2018-10-02T09:57:40.804Z,52.70
2018-10-02T10:00:13.024Z,53.40
2018-10-02T10:02:41.025Z,52.70
2018-10-02T10:05:08.649Z,53.30
2018-10-02T10:07:36.267Z,53.10
2018-10-02T10:10:04.212Z,52.10
2018-10-02T10:12:31.855Z,52.50
2018-10-02T10:14:59.541Z,53.00
2018-10-02T10:17:27.300Z,52.80
2018-10-02T10:19:55.187Z,52.70
2018-10-02T10:22:22.873Z,53.00
2018-10-02T10:24:50.521Z,52.20
2018-10-02T10:27:18.215Z,52.40
2018-10-02T10:29:46.045Z,51.60
2018-10-02T10:32:13.670Z,51.80
2018-10-02T10:34:41.365Z,50.50
2018-10-02T10:37:09.246Z,50.70
2018-10-02T10:39:36.959Z,50.90
2018-10-02T10:42:04.810Z,51.80
2018-10-02T10:44:32.484Z,50.60
2018-10-02T10:47:00.231Z,50.60
2018-10-02T10:49:27.877Z,51.20
2018-10-02T10:51:55.514Z,51.70
2018-10-02T10:54:23.164Z,51.10
2018-10-02T10:56:50.851Z,50.10
2018-10-02T10:59:18.817Z,50.70
2018-10-02T11:01:46.521Z,50.50
2018-10-02T11:04:14.182Z,50.80
2018-10-02T11:06:41.943Z,50.90
2018-10-02T11:09:10.549Z,51.10
2018-10-02T11:11:38.252Z,51.60
2018-10-02T11:14:06.381Z,51.00
2018-10-02T11:16:34.144Z,50.20
2018-10-02T11:19:01.866Z,50.90
2018-10-02T11:21:29.592Z,51.70
2018-10-02T11:23:57.404Z,51.60
2018-10-02T11:26:31.608Z,50.40
2018-10-02T11:28:59.295Z,50.10
2018-10-02T11:31:26.957Z,50.40
2018-10-02T11:33:55.404Z,52.30
2018-10-02T11:36:23.065Z,50.70
2018-10-02T11:38:50.704Z,49.60
2018-10-02T11:41:18.402Z,48.80
2018-10-02T11:43:46.129Z,49.40
2018-10-02T11:46:14.693Z,49.70
2018-10-02T11:48:42.372Z,49.00
2018-10-02T11:51:09.988Z,49.20
2018-10-02T11:53:37.725Z,48.20
2018-10-02T11:56:05.394Z,47.50
2018-10-02T11:58:33.097Z,47.60
2018-10-02T12:01:00.751Z,47.40
2018-10-02T12:03:28.531Z,46.90
2018-10-02T12:05:56.211Z,44.80
2018-10-02T12:08:24.277Z,44.00
2018-10-02T12:10:51.940Z,44.50
2018-10-02T12:13:19.602Z,45.50
2018-10-02T12:15:47.528Z,45.00
2018-10-02T12:18:15.256Z,44.80
2018-10-02T12:20:42.894Z,44.10
2018-10-02T12:23:10.966Z,43.70
2018-10-02T12:25:38.679Z,44.20
2018-10-02T12:28:13.127Z,44.20
2018-10-02T12:30:40.762Z,45.20
2018-10-02T12:33:08.440Z,44.70
2018-10-02T12:35:36.431Z,45.50
2018-10-02T12:38:04.066Z,45.70
2018-10-02T12:40:31.687Z,45.90
2018-10-02T12:42:59.411Z,45.20
2018-10-02T12:45:27.071Z,45.60
2018-10-02T12:47:54.706Z,45.40
2018-10-02T12:50:22.377Z,44.40
2018-10-02T12:52:50.194Z,44.30
2018-10-02T12:55:17.822Z,44.40
2018-10-02T12:57:45.429Z,45.80
2018-10-02T13:00:13.065Z,45.70
2018-10-02T13:02:40.718Z,44.90
2018-10-02T13:05:08.426Z,45.50
2018-10-02T13:07:36.149Z,45.60
2018-10-02T13:10:04.069Z,45.50
2018-10-02T13:12:31.695Z,45.20
2018-10-02T13:14:59.407Z,46.20
2018-10-02T13:17:27.077Z,46.40
2018-10-02T13:19:55.004Z,45.40
2018-10-02T13:22:22.725Z,45.10
2018-10-02T13:24:50.401Z,45.80
2018-10-02T13:27:18.068Z,46.00
2018-10-02T13:29:45.973Z,45.80
2018-10-02T13:32:13.705Z,45.60
2018-10-02T13:34:41.766Z,45.90
2018-10-02T13:37:09.500Z,45.30
2018-10-02T13:39:37.117Z,45.20
2018-10-02T13:42:05.144Z,45.50
2018-10-02T13:44:32.851Z,45.70
2018-10-02T13:47:00.513Z,45.70
2018-10-02T13:49:28.224Z,45.20
2018-10-02T13:51:56.071Z,45.60
2018-10-02T13:54:23.684Z,46.30
2018-10-02T13:56:51.506Z,46.10
2018-10-02T13:59:19.170Z,46.10
2018-10-02T14:01:46.885Z,46.70
2018-10-02T14:04:14.608Z,46.80
2018-10-02T14:06:42.188Z,47.00
2018-10-02T14:09:10.216Z,47.70
2018-10-02T14:11:37.958Z,48.80
2018-10-02T14:14:05.781Z,50.60
2018-10-02T14:16:33.572Z,53.30
2018-10-02T14:19:01.285Z,54.30
2018-10-02T14:21:29.061Z,55.60
2018-10-02T14:23:56.744Z,56.80
2018-10-02T14:26:24.453Z,57.50
2018-10-02T14:28:52.031Z,57.30
2018-10-02T14:31:19.914Z,57.60
2018-10-02T14:33:47.559Z,56.80
2018-10-02T14:36:15.309Z,57.50
2018-10-02T14:38:43.001Z,57.30
2018-10-02T14:41:10.958Z,56.70
2018-10-02T14:43:38.738Z,58.10
2018-10-02T14:46:06.487Z,57.50
2018-10-02T14:48:34.109Z,57.20
2018-10-02T14:51:01.808Z,58.00
2018-10-02T14:53:29.441Z,56.80
2018-10-02T14:55:57.311Z,55.80
2018-10-02T14:58:25.153Z,56.20
2018-10-02T15:00:52.829Z,56.10
2018-10-02T15:03:20.502Z,55.40
2018-10-02T15:05:48.851Z,54.60
2018-10-02T15:08:16.542Z,54.10
2018-10-02T15:10:44.222Z,54.00
2018-10-02T15:13:11.869Z,54.40
2018-10-02T15:15:39.630Z,54.40
2018-10-02T15:18:07.453Z,53.60
2018-10-02T15:20:35.117Z,53.60
2018-10-02T15:23:02.797Z,53.10
2018-10-02T15:25:30.633Z,52.80
2018-10-02T15:27:58.482Z,52.80
2018-10-02T15:30:26.221Z,52.70
2018-10-02T15:32:53.973Z,52.60
2018-10-02T15:35:21.781Z,52.30
2018-10-02T15:37:49.570Z,51.40
2018-10-02T15:40:17.138Z,51.30
2018-10-02T15:42:44.932Z,51.00
2018-10-02T15:45:12.887Z,50.70
2018-10-02T15:47:40.752Z,50.70
2018-10-02T15:50:08.388Z,51.00
2018-10-02T15:52:36.072Z,50.50
2018-10-02T15:55:03.772Z,50.70
2018-10-02T15:57:31.440Z,50.60
2018-10-02T15:59:59.098Z,50.10
2018-10-02T16:02:26.867Z,50.40
2018-10-02T16:04:54.724Z,50.70
2018-10-02T16:07:22.548Z,50.90
2018-10-02T16:09:50.264Z,51.00
2018-10-02T16:12:18.153Z,50.20
2018-10-02T16:14:46.038Z,50.10
2018-10-02T16:17:13.701Z,50.10
2018-10-02T16:19:41.480Z,49.80
2018-10-02T16:22:09.180Z,50.10
2018-10-02T16:24:36.832Z,50.00
2018-10-02T16:27:04.752Z,50.30
2018-10-02T16:29:32.388Z,49.90
2018-10-02T16:32:00.015Z,50.30
2018-10-02T16:34:27.758Z,50.20
2018-10-02T16:36:55.394Z,50.60
2018-10-02T16:39:23.021Z,50.60
2018-10-02T16:41:50.633Z,50.90
2018-10-02T16:44:18.295Z,50.70
2018-10-02T16:46:46.128Z,50.50
2018-10-02T16:49:13.985Z,50.70
2018-10-02T16:51:41.642Z,50.70
2018-10-02T16:54:09.290Z,50.80
2018-10-02T16:56:36.955Z,51.20
2018-10-02T16:59:04.869Z,50.70
2018-10-02T17:01:32.510Z,51.00
2018-10-02T17:04:00.230Z,50.90
2018-10-02T17:06:28.063Z,51.40
2018-10-02T17:08:55.688Z,51.00
2018-10-02T17:11:23.305Z,51.20
2018-10-02T17:13:51.365Z,51.20
2018-10-02T17:16:18.986Z,51.30
2018-10-02T17:18:46.864Z,51.60
2018-10-02T17:21:14.586Z,51.50
2018-10-02T17:23:42.163Z,51.50
2018-10-02T17:26:10.397Z,51.70
2018-10-02T17:28:38.383Z,51.70
2018-10-02T17:31:06.072Z,51.90
2018-10-02T17:33:33.750Z,52.10
2018-10-02T17:36:02.185Z,52.30
2018-10-02T17:38:29.839Z,52.30
2018-10-02T17:40:57.810Z,52.30
2018-10-02T17:43:25.601Z,52.20
2018-10-02T17:45:53.253Z,52.40
2018-10-02T17:48:20.974Z,52.60
2018-10-02T17:50:48.712Z,52.50
2018-10-02T17:53:16.341Z,52.50
2018-10-02T17:55:44.156Z,52.80
2018-10-02T17:58:11.829Z,52.60
2018-10-02T18:00:39.783Z,52.80
2018-10-02T18:03:07.505Z,53.10
2018-10-02T18:05:35.400Z,52.90
2018-10-02T18:08:03.283Z,53.00
2018-10-02T18:10:31.196Z,53.10
2018-10-02T18:12:58.868Z,53.20
2018-10-02T18:15:26.673Z,53.30
2018-10-02T18:17:54.304Z,53.50
2018-10-02T18:20:21.949Z,53.40
2018-10-02T18:22:49.744Z,54.40
2018-10-02T18:25:17.416Z,54.70
2018-10-02T18:27:45.286Z,54.80
2018-10-02T18:30:12.959Z,54.80
2018-10-02T18:32:40.577Z,54.80
2018-10-02T18:35:08.284Z,54.90
2018-10-02T18:37:35.948Z,55.00
2018-10-02T18:40:03.665Z,55.30
2018-10-02T18:42:31.485Z,55.30
2018-10-02T18:44:59.125Z,55.40
2018-10-02T18:47:26.833Z,55.50
2018-10-02T18:49:55.422Z,55.60
2018-10-02T18:52:23.374Z,55.70
2018-10-02T18:54:50.959Z,55.70
2018-10-02T18:57:18.620Z,56.10
2018-10-02T18:59:46.451Z,56.10
2018-10-02T19:02:14.085Z,56.10
2018-10-02T19:04:41.684Z,56.30
2018-10-02T19:07:09.613Z,56.30
2018-10-02T19:09:37.224Z,56.40
2018-10-02T19:12:10.484Z,56.60
2018-10-02T19:14:38.061Z,56.80
2018-10-02T19:17:05.671Z,56.80
2018-10-02T19:19:38.971Z,56.90
2018-10-02T19:22:06.568Z,56.80
2018-10-02T19:24:34.306Z,57.10
2018-10-02T19:27:01.894Z,57.30
2018-10-02T19:29:29.434Z,57.30
2018-10-02T19:32:16.152Z,57.30
2018-10-02T19:34:43.984Z,57.50
2018-10-02T19:37:17.330Z,57.50
2018-10-02T19:39:44.919Z,57.70
2018-10-02T19:42:12.764Z,57.80
2018-10-02T19:44:40.533Z,57.90
2018-10-02T19:47:08.234Z,57.90
2018-10-02T19:49:36.288Z,57.90
2018-10-02T19:52:09.553Z,58.00
2018-10-02T19:54:37.109Z,58.00
2018-10-02T19:57:05.371Z,58.10
2018-10-02T19:59:33.295Z,58.10
2018-10-02T20:02:00.946Z,58.10
2018-10-02T20:04:28.517Z,58.30
2018-10-02T20:06:56.134Z,58.40
2018-10-02T20:09:23.769Z,58.40
2018-10-02T20:11:51.380Z,58.50
2018-10-02T20:14:18.977Z,58.60
2018-10-02T20:16:46.574Z,58.80
2018-10-02T20:19:14.131Z,58.90
2018-10-02T20:21:41.716Z,58.90
2018-10-02T20:24:09.347Z,59.10
2018-10-02T20:26:36.973Z,59.10
2018-10-02T20:29:04.624Z,59.30
2018-10-02T20:31:34.659Z,59.30
2018-10-02T20:34:02.240Z,59.30
2018-10-02T20:36:29.855Z,59.20
2018-10-02T20:38:57.638Z,59.30
2018-10-02T20:41:25.209Z,59.30
2018-10-02T20:43:52.777Z,59.30
2018-10-02T20:46:20.368Z,59.20
2018-10-02T20:48:47.940Z,59.40
2018-10-02T20:51:15.517Z,59.40
2018-10-02T20:53:43.096Z,59.50
2018-10-02T20:56:10.661Z,59.40
2018-10-02T20:58:38.314Z,59.40
2018-10-02T21:01:06.673Z,59.40
2018-10-02T21:03:34.299Z,59.30
2018-10-02T21:06:02.188Z,59.10
2018-10-02T21:08:29.821Z,59.10
2018-10-02T21:10:57.399Z,59.20
2018-10-02T21:13:24.936Z,59.20
2018-10-02T21:15:52.488Z,59.20
2018-10-02T21:18:20.933Z,59.20
2018-10-02T21:20:48.476Z,59.30
2018-10-02T21:23:16.076Z,59.30
2018-10-02T21:25:43.623Z,59.20
2018-10-02T21:28:11.197Z,59.20
2018-10-02T21:30:38.800Z,59.30
2018-10-02T21:33:06.404Z,59.20
2018-10-02T21:35:34.004Z,59.40
2018-10-02T21:38:01.576Z,59.30
2018-10-02T21:40:29.184Z,59.20
2018-10-02T21:42:56.776Z,59.00
2018-10-02T21:45:24.354Z,59.10
2018-10-02T21:47:51.915Z,59.10
2018-10-02T21:50:19.482Z,58.60
2018-10-02T21:52:47.239Z,58.70
2018-10-02T21:55:14.861Z,58.50
2018-10-02T21:57:42.548Z,58.30
2018-10-02T22:00:10.424Z,58.30
2018-10-02T22:02:38.042Z,58.30
2018-10-02T22:05:05.643Z,58.30
2018-10-02T22:07:33.577Z,58.20
2018-10-02T22:10:01.405Z,58.20
2018-10-02T22:12:29.043Z,57.90
2018-10-02T22:14:56.656Z,57.70
2018-10-02T22:17:24.281Z,57.70
2018-10-02T22:19:51.896Z,57.70
2018-10-02T22:22:19.490Z,57.50
2018-10-02T22:24:47.231Z,57.50
2018-10-02T22:27:14.776Z,57.50
2018-10-02T22:29:42.408Z,57.40
2018-10-02T22:32:10.117Z,57.30
2018-10-02T22:34:37.690Z,57.40
2018-10-02T22:37:05.287Z,57.50
2018-10-02T22:39:32.883Z,57.30
2018-10-02T22:42:00.534Z,57.50
2018-10-02T22:44:28.163Z,57.20
2018-10-02T22:46:55.767Z,57.40
2018-10-02T22:49:23.348Z,57.60
2018-10-02T22:51:51.110Z,57.70
2018-10-02T22:54:18.714Z,58.00
2018-10-02T22:56:46.307Z,57.70
2018-10-02T22:59:14.050Z,57.70
2018-10-02T23:01:41.577Z,57.70
2018-10-02T23:04:09.157Z,57.50
2018-10-02T23:06:36.753Z,57.40
2018-10-02T23:09:07.488Z,57.30
2018-10-02T23:11:35.131Z,57.40
2018-10-02T23:14:02.752Z,57.50
2018-10-02T23:16:30.331Z,57.40
2018-10-02T23:18:57.896Z,57.50
2018-10-02T23:21:25.490Z,57.50
2018-10-02T23:23:53.083Z,57.60
2018-10-02T23:26:20.695Z,57.60
2018-10-02T23:28:48.308Z,57.60
2018-10-02T23:31:16.010Z,57.60
2018-10-02T23:33:43.614Z,57.80
2018-10-02T23:36:11.202Z,57.50
2018-10-02T23:38:38.904Z,57.40
2018-10-02T23:41:06.523Z,57.30
2018-10-02T23:43:34.079Z,57.30
2018-10-02T23:46:01.897Z,57.40
2018-10-02T23:48:29.755Z,57.30
2018-10-02T23:50:57.437Z,57.30
2018-10-02T23:53:25.087Z,57.30
2018-10-02T23:55:52.733Z,57.20
2018-10-02T23:58:20.497Z,57.20
